sensor_id;sensor_type;location;lat;lon;timestamp;pressure;altitude;pressure_sealevel;temperature;humidity
13041;BME280;6587;42.728;23.288;2022-11-20T00:01:13;94417.28;;;17.73;100.00
13041;BME280;6587;42.728;23.288;2022-11-20T00:03:41;94409.50;;;17.77;100.00
13041;BME280;6587;42.728;23.288;2022-11-20T00:06:10;94414.16;;;17.88;100.00
13041;BME280;6587;42.728;23.288;2022-11-20T00:08:37;94425.19;;;18.08;100.00
13041;BME280;6587;42.728;23.288;2022-11-20T00:11:05;94435.56;;;18.44;97.58
13041;BME280;6587;42.728;23.288;2022-11-20T00:13:33;94412.06;;;18.59;94.75
13041;BME280;6587;42.728;23.288;2022-11-20T00:16:01;94410.84;;;18.88;90.93
13041;BME280;6587;42.728;23.288;2022-11-20T00:18:30;94406.22;;;19.15;88.75
13041;BME280;6587;42.728;23.288;2022-11-20T00:21:01;94383.47;;;19.12;87.21
13041;BME280;6587;42.728;23.288;2022-11-20T00:23:28;94401.69;;;19.22;86.51
13041;BME280;6587;42.728;23.288;2022-11-20T00:25:55;94390.56;;;19.24;83.22
13041;BME280;6587;42.728;23.288;2022-11-20T00:28:22;94411.41;;;19.31;82.16
13041;BME280;6587;42.728;23.288;2022-11-20T00:30:48;94393.75;;;19.47;79.65
13041;BME280;6587;42.728;23.288;2022-11-20T00:33:15;94402.25;;;19.46;78.65
13041;BME280;6587;42.728;23.288;2022-11-20T00:35:44;94374.72;;;19.37;79.69
13041;BME280;6587;42.728;23.288;2022-11-20T00:38:11;94401.94;;;19.35;78.33
13041;BME280;6587;42.728;23.288;2022-11-20T00:40:37;94395.78;;;19.21;79.95
13041;BME280;6587;42.728;23.288;2022-11-20T00:43:04;94384.50;;;19.27;80.13
13041;BME280;6587;42.728;23.288;2022-11-20T00:45:31;94392.38;;;19.40;81.36
13041;BME280;6587;42.728;23.288;2022-11-20T00:47:58;94401.94;;;19.35;81.73
13041;BME280;6587;42.728;23.288;2022-11-20T00:50:25;94405.94;;;19.21;81.70
13041;BME280;6587;42.728;23.288;2022-11-20T00:52:53;94395.13;;;19.54;78.96
13041;BME280;6587;42.728;23.288;2022-11-20T00:55:20;94405.09;;;19.40;80.39
13041;BME280;6587;42.728;23.288;2022-11-20T00:57:47;94402.34;;;19.44;79.60
13041;BME280;6587;42.728;23.288;2022-11-20T01:00:15;94388.84;;;19.42;80.71
13041;BME280;6587;42.728;23.288;2022-11-20T01:02:42;94373.75;;;19.20;81.06
13041;BME280;6587;42.728;23.288;2022-11-20T01:05:09;94399.19;;;19.20;82.30
13041;BME280;6587;42.728;23.288;2022-11-20T01:07:36;94384.22;;;19.33;83.13
13041;BME280;6587;42.728;23.288;2022-11-20T01:10:06;94375.09;;;19.10;82.82
13041;BME280;6587;42.728;23.288;2022-11-20T01:12:33;94399.41;;;18.97;85.00
13041;BME280;6587;42.728;23.288;2022-11-20T01:15:00;94383.19;;;19.18;83.11
13041;BME280;6587;42.728;23.288;2022-11-20T01:17:27;94367.44;;;19.29;81.48
13041;BME280;6587;42.728;23.288;2022-11-20T01:19:54;94376.53;;;19.16;82.75
13041;BME280;6587;42.728;23.288;2022-11-20T01:22:21;94350.75;;;19.23;82.20
13041;BME280;6587;42.728;23.288;2022-11-20T01:24:48;94372.09;;;19.38;81.23
13041;BME280;6587;42.728;23.288;2022-11-20T01:27:16;94362.50;;;19.26;80.05
13041;BME280;6587;42.728;23.288;2022-11-20T01:29:43;94369.78;;;19.34;80.55
13041;BME280;6587;42.728;23.288;2022-11-20T01:32:10;94364.59;;;19.35;78.20
13041;BME280;6587;42.728;23.288;2022-11-20T01:34:37;94359.56;;;19.53;75.97
13041;BME280;6587;42.728;23.288;2022-11-20T01:37:04;94363.69;;;19.55;75.22
13041;BME280;6587;42.728;23.288;2022-11-20T01:39:31;94353.41;;;19.39;76.20
13041;BME280;6587;42.728;23.288;2022-11-20T01:41:58;94354.16;;;19.41;75.46
13041;BME280;6587;42.728;23.288;2022-11-20T01:44:52;94362.41;;;19.46;75.46
13041;BME280;6587;42.728;23.288;2022-11-20T01:47:27;94363.88;;;19.33;75.63
13041;BME280;6587;42.728;23.288;2022-11-20T01:49:59;94358.25;;;19.27;76.37
13041;BME280;6587;42.728;23.288;2022-11-20T01:52:30;94355.75;;;19.44;74.62
13041;BME280;6587;42.728;23.288;2022-11-20T01:55:01;94362.03;;;19.54;73.41
13041;BME280;6587;42.728;23.288;2022-11-20T01:57:31;94368.84;;;19.54;74.85
13041;BME280;6587;42.728;23.288;2022-11-20T02:00:04;94339.66;;;19.43;74.48
13041;BME280;6587;42.728;23.288;2022-11-20T02:02:45;94356.19;;;19.52;75.06
13041;BME280;6587;42.728;23.288;2022-11-20T02:05:17;94356.84;;;19.38;76.64
13041;BME280;6587;42.728;23.288;2022-11-20T02:07:46;94361.47;;;19.30;77.79
13041;BME280;6587;42.728;23.288;2022-11-20T02:10:15;94350.06;;;19.20;77.76
13041;BME280;6587;42.728;23.288;2022-11-20T02:12:44;94353.84;;;19.30;76.99
13041;BME280;6587;42.728;23.288;2022-11-20T02:15:30;94352.28;;;19.45;75.85
13041;BME280;6587;42.728;23.288;2022-11-20T02:17:58;94356.16;;;19.35;76.28
13041;BME280;6587;42.728;23.288;2022-11-20T02:20:25;94363.34;;;19.08;78.34
13041;BME280;6587;42.728;23.288;2022-11-20T02:22:57;94367.81;;;19.21;78.46
13041;BME280;6587;42.728;23.288;2022-11-20T02:25:28;94361.31;;;19.33;77.27
13041;BME280;6587;42.728;23.288;2022-11-20T02:27:57;94353.72;;;19.14;78.54
13041;BME280;6587;42.728;23.288;2022-11-20T02:30:24;94350.50;;;19.11;79.42
13041;BME280;6587;42.728;23.288;2022-11-20T02:32:51;94340.69;;;19.03;78.75
13041;BME280;6587;42.728;23.288;2022-11-20T02:35:44;94370.91;;;19.28;78.50
13041;BME280;6587;42.728;23.288;2022-11-20T02:38:11;94368.44;;;19.08;79.08
13041;BME280;6587;42.728;23.288;2022-11-20T02:40:40;94372.38;;;18.96;80.34
13041;BME280;6587;42.728;23.288;2022-11-20T02:43:08;94384.91;;;18.99;80.86
13041;BME280;6587;42.728;23.288;2022-11-20T02:45:35;94391.44;;;18.86;83.17
13041;BME280;6587;42.728;23.288;2022-11-20T02:48:02;94379.16;;;18.95;83.34
13041;BME280;6587;42.728;23.288;2022-11-20T02:50:29;94385.19;;;18.93;83.36
13041;BME280;6587;42.728;23.288;2022-11-20T02:52:56;94389.38;;;18.94;82.89
13041;BME280;6587;42.728;23.288;2022-11-20T02:55:23;94391.25;;;18.90;83.56
13041;BME280;6587;42.728;23.288;2022-11-20T02:57:51;94395.50;;;18.71;86.17
13041;BME280;6587;42.728;23.288;2022-11-20T03:00:18;94407.03;;;18.78;86.30
13041;BME280;6587;42.728;23.288;2022-11-20T03:02:45;94401.34;;;18.92;85.87
13041;BME280;6587;42.728;23.288;2022-11-20T03:05:12;94406.50;;;18.90;86.03
13041;BME280;6587;42.728;23.288;2022-11-20T03:07:39;94407.44;;;18.88;86.86
13041;BME280;6587;42.728;23.288;2022-11-20T03:10:07;94413.38;;;18.88;87.72
13041;BME280;6587;42.728;23.288;2022-11-20T03:12:34;94424.00;;;18.78;88.03
13041;BME280;6587;42.728;23.288;2022-11-20T03:15:03;94431.69;;;18.76;88.99
13041;BME280;6587;42.728;23.288;2022-11-20T03:17:30;94433.09;;;18.63;89.33
13041;BME280;6587;42.728;23.288;2022-11-20T03:19:57;94433.72;;;18.47;91.20
13041;BME280;6587;42.728;23.288;2022-11-20T03:22:24;94425.59;;;18.60;90.51
13041;BME280;6587;42.728;23.288;2022-11-20T03:24:51;94428.81;;;18.63;90.02
13041;BME280;6587;42.728;23.288;2022-11-20T03:27:18;94414.19;;;18.68;89.91
13041;BME280;6587;42.728;23.288;2022-11-20T03:29:44;94433.25;;;18.58;90.29
13041;BME280;6587;42.728;23.288;2022-11-20T03:32:13;94429.66;;;18.64;90.75
13041;BME280;6587;42.728;23.288;2022-11-20T03:34:40;94438.91;;;18.85;89.35
13041;BME280;6587;42.728;23.288;2022-11-20T03:37:07;94442.28;;;18.65;90.48
13041;BME280;6587;42.728;23.288;2022-11-20T03:39:33;94441.84;;;18.76;88.34
13041;BME280;6587;42.728;23.288;2022-11-20T03:42:00;94457.59;;;18.64;89.54
13041;BME280;6587;42.728;23.288;2022-11-20T03:44:27;94427.50;;;18.75;88.60
13041;BME280;6587;42.728;23.288;2022-11-20T03:46:54;94455.38;;;18.76;88.34
13041;BME280;6587;42.728;23.288;2022-11-20T03:49:22;94468.78;;;18.60;89.62
13041;BME280;6587;42.728;23.288;2022-11-20T03:51:49;94443.63;;;18.53;90.10
13041;BME280;6587;42.728;23.288;2022-11-20T03:54:16;94451.81;;;18.81;88.29
13041;BME280;6587;42.728;23.288;2022-11-20T03:56:43;94446.94;;;18.76;85.98
13041;BME280;6587;42.728;23.288;2022-11-20T03:59:10;94418.38;;;18.69;86.74
13041;BME280;6587;42.728;23.288;2022-11-20T04:01:37;94441.59;;;18.82;87.14
13041;BME280;6587;42.728;23.288;2022-11-20T04:04:04;94447.31;;;18.67;88.00
13041;BME280;6587;42.728;23.288;2022-11-20T04:06:36;94450.03;;;18.83;86.76
13041;BME280;6587;42.728;23.288;2022-11-20T04:09:03;94454.41;;;18.59;88.60
13041;BME280;6587;42.728;23.288;2022-11-20T04:11:32;94454.97;;;18.65;89.02
13041;BME280;6587;42.728;23.288;2022-11-20T04:14:02;94441.53;;;18.63;88.33
13041;BME280;6587;42.728;23.288;2022-11-20T04:16:31;94444.69;;;18.68;88.13
13041;BME280;6587;42.728;23.288;2022-11-20T04:18:59;94423.16;;;18.77;85.40
13041;BME280;6587;42.728;23.288;2022-11-20T04:21:27;94414.25;;;18.87;86.08
13041;BME280;6587;42.728;23.288;2022-11-20T04:23:55;94429.31;;;18.92;82.61
13041;BME280;6587;42.728;23.288;2022-11-20T04:26:24;94394.78;;;18.67;83.47
13041;BME280;6587;42.728;23.288;2022-11-20T04:28:52;94418.25;;;18.93;82.49
13041;BME280;6587;42.728;23.288;2022-11-20T04:31:21;94422.34;;;18.56;84.30
13041;BME280;6587;42.728;23.288;2022-11-20T04:33:48;94442.94;;;18.50;85.10
13041;BME280;6587;42.728;23.288;2022-11-20T04:36:16;94420.81;;;18.72;84.01
13041;BME280;6587;42.728;23.288;2022-11-20T04:38:44;94437.88;;;18.69;84.35
13041;BME280;6587;42.728;23.288;2022-11-20T04:41:15;94443.13;;;18.45;86.39
13041;BME280;6587;42.728;23.288;2022-11-20T04:43:46;94445.00;;;18.40;86.25
13041;BME280;6587;42.728;23.288;2022-11-20T04:46:14;94416.13;;;18.43;85.66
13041;BME280;6587;42.728;23.288;2022-11-20T04:48:41;94426.41;;;18.60;85.20
13041;BME280;6587;42.728;23.288;2022-11-20T04:51:08;94415.69;;;18.74;83.34
13041;BME280;6587;42.728;23.288;2022-11-20T04:53:34;94432.81;;;18.69;82.83
13041;BME280;6587;42.728;23.288;2022-11-20T04:56:03;94405.19;;;18.61;83.59
13041;BME280;6587;42.728;23.288;2022-11-20T04:58:31;94405.75;;;18.68;82.41
13041;BME280;6587;42.728;23.288;2022-11-20T05:01:02;94423.91;;;18.59;83.71
13041;BME280;6587;42.728;23.288;2022-11-20T05:03:29;94392.56;;;18.60;82.58
13041;BME280;6587;42.728;23.288;2022-11-20T05:05:59;94392.66;;;18.77;82.10
13041;BME280;6587;42.728;23.288;2022-11-20T05:08:27;94395.59;;;18.88;79.86
13041;BME280;6587;42.728;23.288;2022-11-20T05:10:54;94395.75;;;18.84;81.09
13041;BME280;6587;42.728;23.288;2022-11-20T05:13:20;94369.84;;;18.57;83.09
13041;BME280;6587;42.728;23.288;2022-11-20T05:15:49;94393.91;;;18.87;82.39
13041;BME280;6587;42.728;23.288;2022-11-20T05:18:16;94396.94;;;18.76;82.09
13041;BME280;6587;42.728;23.288;2022-11-20T05:20:42;94401.25;;;18.74;80.89
13041;BME280;6587;42.728;23.288;2022-11-20T05:23:09;94403.94;;;18.90;80.87
13041;BME280;6587;42.728;23.288;2022-11-20T05:25:36;94400.38;;;18.75;82.90
13041;BME280;6587;42.728;23.288;2022-11-20T05:28:03;94416.50;;;18.34;84.55
13041;BME280;6587;42.728;23.288;2022-11-20T05:30:30;94406.59;;;18.48;84.79
13041;BME280;6587;42.728;23.288;2022-11-20T05:32:58;94408.25;;;18.49;84.76
13041;BME280;6587;42.728;23.288;2022-11-20T05:35:25;94410.56;;;18.35;84.61
13041;BME280;6587;42.728;23.288;2022-11-20T05:37:52;94398.69;;;18.35;84.35
13041;BME280;6587;42.728;23.288;2022-11-20T05:40:19;94415.75;;;18.52;83.37
13041;BME280;6587;42.728;23.288;2022-11-20T05:42:46;94421.84;;;18.48;83.79
13041;BME280;6587;42.728;23.288;2022-11-20T05:45:13;94419.50;;;18.02;86.62
13041;BME280;6587;42.728;23.288;2022-11-20T05:47:39;94431.91;;;18.31;86.32
13041;BME280;6587;42.728;23.288;2022-11-20T05:50:08;94424.81;;;18.58;84.94
13041;BME280;6587;42.728;23.288;2022-11-20T05:52:35;94418.72;;;18.62;84.83
13041;BME280;6587;42.728;23.288;2022-11-20T05:55:02;94427.72;;;18.69;83.43
13041;BME280;6587;42.728;23.288;2022-11-20T05:57:30;94428.06;;;18.61;84.44
13041;BME280;6587;42.728;23.288;2022-11-20T05:59:57;94409.41;;;18.42;86.56
13041;BME280;6587;42.728;23.288;2022-11-20T06:02:24;94426.28;;;18.43;88.28
13041;BME280;6587;42.728;23.288;2022-11-20T06:04:51;94429.69;;;18.23;89.51
13041;BME280;6587;42.728;23.288;2022-11-20T06:07:19;94424.19;;;18.32;88.65
13041;BME280;6587;42.728;23.288;2022-11-20T06:09:46;94427.25;;;18.40;88.94
13041;BME280;6587;42.728;23.288;2022-11-20T06:12:13;94437.84;;;18.50;89.34
13041;BME280;6587;42.728;23.288;2022-11-20T06:14:40;94426.00;;;18.69;88.09
13041;BME280;6587;42.728;23.288;2022-11-20T06:17:07;94421.22;;;18.43;89.54
13041;BME280;6587;42.728;23.288;2022-11-20T06:19:34;94428.38;;;18.53;89.88
13041;BME280;6587;42.728;23.288;2022-11-20T06:22:01;94406.81;;;18.83;88.19
13041;BME280;6587;42.728;23.288;2022-11-20T06:24:29;94420.69;;;18.75;88.62
13041;BME280;6587;42.728;23.288;2022-11-20T06:26:56;94419.44;;;18.24;89.78
13041;BME280;6587;42.728;23.288;2022-11-20T06:29:23;94427.31;;;18.39;89.47
13041;BME280;6587;42.728;23.288;2022-11-20T06:31:50;94432.31;;;18.40;89.09
13041;BME280;6587;42.728;23.288;2022-11-20T06:34:17;94416.13;;;18.43;88.78
13041;BME280;6587;42.728;23.288;2022-11-20T06:36:43;94428.94;;;18.81;87.31
13041;BME280;6587;42.728;23.288;2022-11-20T06:39:10;94420.91;;;19.09;85.01
13041;BME280;6587;42.728;23.288;2022-11-20T06:41:39;94422.84;;;19.04;83.33
13041;BME280;6587;42.728;23.288;2022-11-20T06:44:05;94429.09;;;19.15;83.74
13041;BME280;6587;42.728;23.288;2022-11-20T06:46:32;94447.84;;;18.94;85.62
13041;BME280;6587;42.728;23.288;2022-11-20T06:48:59;94435.41;;;18.88;86.06
13041;BME280;6587;42.728;23.288;2022-11-20T06:51:26;94452.94;;;19.13;85.15
13041;BME280;6587;42.728;23.288;2022-11-20T06:53:53;94430.13;;;19.30;84.72
13041;BME280;6587;42.728;23.288;2022-11-20T06:56:20;94441.34;;;19.26;85.87
13041;BME280;6587;42.728;23.288;2022-11-20T06:58:48;94441.06;;;19.32;84.70
13041;BME280;6587;42.728;23.288;2022-11-20T07:01:15;94446.59;;;19.03;85.41
13041;BME280;6587;42.728;23.288;2022-11-20T07:03:43;94427.16;;;19.20;84.42
13041;BME280;6587;42.728;23.288;2022-11-20T07:06:09;94444.97;;;19.02;86.32
13041;BME280;6587;42.728;23.288;2022-11-20T07:08:37;94463.50;;;18.85;87.95
13041;BME280;6587;42.728;23.288;2022-11-20T07:11:06;94478.94;;;18.60;88.99
13041;BME280;6587;42.728;23.288;2022-11-20T07:13:33;94477.59;;;18.51;90.78
13041;BME280;6587;42.728;23.288;2022-11-20T07:16:03;94481.53;;;18.58;92.15
13041;BME280;6587;42.728;23.288;2022-11-20T07:18:30;94491.25;;;18.69;91.13
13041;BME280;6587;42.728;23.288;2022-11-20T07:21:00;94473.72;;;18.63;91.61
13041;BME280;6587;42.728;23.288;2022-11-20T07:23:27;94472.81;;;18.43;89.08
13041;BME280;6587;42.728;23.288;2022-11-20T07:25:54;94460.25;;;18.40;88.38
13041;BME280;6587;42.728;23.288;2022-11-20T07:28:20;94471.59;;;18.74;89.88
13041;BME280;6587;42.728;23.288;2022-11-20T07:30:50;94474.97;;;18.32;93.37
13041;BME280;6587;42.728;23.288;2022-11-20T07:33:18;94465.53;;;18.56;92.44
13041;BME280;6587;42.728;23.288;2022-11-20T07:35:45;94475.94;;;18.50;93.73
13041;BME280;6587;42.728;23.288;2022-11-20T07:38:12;94484.81;;;18.40;93.47
13041;BME280;6587;42.728;23.288;2022-11-20T07:40:39;94493.53;;;18.34;93.10
13041;BME280;6587;42.728;23.288;2022-11-20T07:43:06;94495.69;;;18.23;93.50
13041;BME280;6587;42.728;23.288;2022-11-20T07:45:33;94492.75;;;18.32;92.77
13041;BME280;6587;42.728;23.288;2022-11-20T07:48:00;94463.75;;;18.38;91.33
13041;BME280;6587;42.728;23.288;2022-11-20T07:50:28;94473.31;;;18.51;86.48
13041;BME280;6587;42.728;23.288;2022-11-20T07:53:00;94477.41;;;18.76;86.28
13041;BME280;6587;42.728;23.288;2022-11-20T07:55:28;94471.72;;;18.69;87.79
13041;BME280;6587;42.728;23.288;2022-11-20T07:57:55;94475.66;;;18.78;86.63
13041;BME280;6587;42.728;23.288;2022-11-20T08:00:23;94452.19;;;18.92;84.72
13041;BME280;6587;42.728;23.288;2022-11-20T08:02:50;94464.22;;;19.07;84.95
13041;BME280;6587;42.728;23.288;2022-11-20T08:05:17;94469.47;;;19.03;86.99
13041;BME280;6587;42.728;23.288;2022-11-20T08:07:45;94481.91;;;18.90;88.18
13041;BME280;6587;42.728;23.288;2022-11-20T08:10:13;94485.44;;;19.06;nan
13041;BME280;6587;42.728;23.288;2022-11-20T08:12:44;94477.59;;;18.92;90.34
13041;BME280;6587;42.728;23.288;2022-11-20T08:15:29;94464.78;;;18.74;91.99
13041;BME280;6587;42.728;23.288;2022-11-20T08:18:00;94468.25;;;18.92;91.52
13041;BME280;6587;42.728;23.288;2022-11-20T08:20:27;94485.03;;;18.96;91.74
13041;BME280;6587;42.728;23.288;2022-11-20T08:23:00;94479.16;;;18.94;91.87
13041;BME280;6587;42.728;23.288;2022-11-20T08:25:28;94466.94;;;18.43;94.79
13041;BME280;6587;42.728;23.288;2022-11-20T08:27:57;94479.13;;;18.35;95.27
13041;BME280;6587;42.728;23.288;2022-11-20T08:30:24;94463.13;;;18.53;94.38
13041;BME280;6587;42.728;23.288;2022-11-20T08:32:51;94478.34;;;18.94;92.34
13041;BME280;6587;42.728;23.288;2022-11-20T08:35:18;94495.53;;;18.26;95.16
13041;BME280;6587;42.728;23.288;2022-11-20T08:37:46;94481.66;;;17.92;97.43
13041;BME280;6587;42.728;23.288;2022-11-20T08:40:14;94492.00;;;18.30;93.60
13041;BME280;6587;42.728;23.288;2022-11-20T08:42:48;94494.91;;;18.21;95.04
13041;BME280;6587;42.728;23.288;2022-11-20T08:45:15;94495.09;;;18.16;96.25
13041;BME280;6587;42.728;23.288;2022-11-20T08:47:43;94520.53;;;17.93;100.00
13041;BME280;6587;42.728;23.288;2022-11-20T08:50:10;94535.00;;;17.67;100.00
13041;BME280;6587;42.728;23.288;2022-11-20T08:52:37;94530.94;;;17.87;100.00
13041;BME280;6587;42.728;23.288;2022-11-20T08:55:06;94539.63;;;17.58;100.00
13041;BME280;6587;42.728;23.288;2022-11-20T08:57:35;94531.69;;;17.20;100.00
13041;BME280;6587;42.728;23.288;2022-11-20T09:00:03;94521.50;;;17.21;100.00
13041;BME280;6587;42.728;23.288;2022-11-20T09:02:31;94515.09;;;17.35;100.00
13041;BME280;6587;42.728;23.288;2022-11-20T09:04:59;94535.28;;;16.89;100.00
13041;BME280;6587;42.728;23.288;2022-11-20T09:07:28;94529.50;;;16.86;100.00
13041;BME280;6587;42.728;23.288;2022-11-20T09:09:55;94540.09;;;16.70;100.00
13041;BME280;6587;42.728;23.288;2022-11-20T09:12:22;94549.97;;;16.79;100.00
13041;BME280;6587;42.728;23.288;2022-11-20T09:14:50;94555.31;;;16.95;100.00
13041;BME280;6587;42.728;23.288;2022-11-20T09:17:17;94563.13;;;16.64;100.00
13041;BME280;6587;42.728;23.288;2022-11-20T09:19:46;94562.19;;;16.67;100.00
13041;BME280;6587;42.728;23.288;2022-11-20T09:22:12;94552.69;;;16.47;100.00
13041;BME280;6587;42.728;23.288;2022-11-20T09:24:39;94540.31;;;16.37;100.00
13041;BME280;6587;42.728;23.288;2022-11-20T09:27:07;94540.88;;;16.21;100.00
13041;BME280;6587;42.728;23.288;2022-11-20T09:29:34;94538.88;;;16.04;100.00
13041;BME280;6587;42.728;23.288;2022-11-20T09:32:02;94535.47;;;16.31;100.00
13041;BME280;6587;42.728;23.288;2022-11-20T09:34:29;94534.91;;;16.23;100.00
13041;BME280;6587;42.728;23.288;2022-11-20T09:36:56;94517.34;;;16.44;100.00
13041;BME280;6587;42.728;23.288;2022-11-20T09:39:22;94510.47;;;16.74;100.00
13041;BME280;6587;42.728;23.288;2022-11-20T09:42:11;94504.72;;;16.94;100.00
13041;BME280;6587;42.728;23.288;2022-11-20T09:44:55;94495.94;;;17.49;100.00
13041;BME280;6587;42.728;23.288;2022-11-20T09:47:35;94499.00;;;18.03;100.00
13041;BME280;6587;42.728;23.288;2022-11-20T09:50:18;94497.69;;;18.15;100.00
13041;BME280;6587;42.728;23.288;2022-11-20T09:52:55;94491.56;;;17.98;100.00
13041;BME280;6587;42.728;23.288;2022-11-20T09:55:29;94485.72;;;18.80;100.00
13041;BME280;6587;42.728;23.288;2022-11-20T09:57:58;94467.44;;;19.86;100.00
13041;BME280;6587;42.728;23.288;2022-11-20T10:00:27;94478.94;;;20.64;100.00
13041;BME280;6587;42.728;23.288;2022-11-20T10:03:00;94473.97;;;21.77;100.00
13041;BME280;6587;42.728;23.288;2022-11-20T10:05:31;94474.16;;;22.04;100.00
13041;BME280;6587;42.728;23.288;2022-11-20T10:08:09;94469.91;;;22.04;100.00
13041;BME280;6587;42.728;23.288;2022-11-20T10:10:42;94467.78;;;21.65;100.00
13041;BME280;6587;42.728;23.288;2022-11-20T10:13:24;94430.25;;;21.02;100.00
13041;BME280;6587;42.728;23.288;2022-11-20T10:16:02;94462.69;;;20.67;100.00
13041;BME280;6587;42.728;23.288;2022-11-20T10:18:48;94446.19;;;20.05;100.00
13041;BME280;6587;42.728;23.288;2022-11-20T10:21:24;94440.97;;;19.34;100.00
13041;BME280;6587;42.728;23.288;2022-11-20T10:24:07;94455.81;;;19.05;100.00
13041;BME280;6587;42.728;23.288;2022-11-20T10:26:46;94458.41;;;18.64;100.00
13041;BME280;6587;42.728;23.288;2022-11-20T10:29:19;94450.38;;;18.34;100.00
13041;BME280;6587;42.728;23.288;2022-11-20T10:31:53;94460.84;;;18.04;100.00
13041;BME280;6587;42.728;23.288;2022-11-20T10:34:27;94471.56;;;17.91;100.00
13041;BME280;6587;42.728;23.288;2022-11-20T10:36:59;94470.19;;;18.04;100.00
13041;BME280;6587;42.728;23.288;2022-11-20T10:39:33;94478.47;;;18.09;100.00
13041;BME280;6587;42.728;23.288;2022-11-20T10:42:02;94491.78;;;18.14;100.00
13041;BME280;6587;42.728;23.288;2022-11-20T10:44:31;94499.50;;;17.22;100.00
13041;BME280;6587;42.728;23.288;2022-11-20T10:47:17;94478.47;;;16.96;100.00
13041;BME280;6587;42.728;23.288;2022-11-20T10:49:48;94466.81;;;16.66;100.00
13041;BME280;6587;42.728;23.288;2022-11-20T10:52:21;94459.31;;;16.88;100.00
13041;BME280;6587;42.728;23.288;2022-11-20T10:54:59;94460.53;;;16.52;100.00
13041;BME280;6587;42.728;23.288;2022-11-20T10:57:40;94484.22;;;16.25;100.00
13041;BME280;6587;42.728;23.288;2022-11-20T11:00:12;94517.25;;;15.94;100.00
13041;BME280;6587;42.728;23.288;2022-11-20T11:02:42;94513.06;;;15.66;100.00
13041;BME280;6587;42.728;23.288;2022-11-20T11:05:29;94534.56;;;15.20;100.00
13041;BME280;6587;42.728;23.288;2022-11-20T11:07:59;94546.69;;;14.76;100.00
13041;BME280;6587;42.728;23.288;2022-11-20T11:10:31;94570.13;;;14.45;100.00
13041;BME280;6587;42.728;23.288;2022-11-20T11:12:59;55582.06;;;-145.82;100.00
13041;BME280;6587;42.728;23.288;2022-11-20T11:15:28;55582.06;;;-145.82;100.00
13041;BME280;6587;42.728;23.288;2022-11-20T11:17:56;55582.06;;;-145.82;100.00
13041;BME280;6587;42.728;23.288;2022-11-20T11:20:24;55582.06;;;-145.82;100.00
13041;BME280;6587;42.728;23.288;2022-11-20T11:22:55;55582.06;;;-145.82;100.00
13041;BME280;6587;42.728;23.288;2022-11-20T11:25:28;55582.06;;;-145.82;100.00
13041;BME280;6587;42.728;23.288;2022-11-20T11:27:58;55582.06;;;-145.82;100.00
13041;BME280;6587;42.728;23.288;2022-11-20T11:30:27;55582.06;;;-145.82;100.00
13041;BME280;6587;42.728;23.288;2022-11-20T11:33:06;55582.06;;;-145.82;100.00
13041;BME280;6587;42.728;23.288;2022-11-20T11:35:33;55582.06;;;-145.82;100.00
13041;BME280;6587;42.728;23.288;2022-11-20T11:38:06;55582.06;;;-145.82;100.00
13041;BME280;6587;42.728;23.288;2022-11-20T11:40:35;55582.06;;;-145.82;100.00
13041;BME280;6587;42.728;23.288;2022-11-20T11:43:06;55582.06;;;-145.82;100.00
13041;BME280;6587;42.728;23.288;2022-11-20T11:46:21;55582.06;;;-145.82;100.00
13041;BME280;6587;42.728;23.288;2022-11-20T11:48:56;55582.06;;;-145.82;100.00
13041;BME280;6587;42.728;23.288;2022-11-20T11:51:26;55582.06;;;-145.82;100.00
13041;BME280;6587;42.728;23.288;2022-11-20T11:53:58;55582.06;;;-145.82;100.00
13041;BME280;6587;42.728;23.288;2022-11-20T11:56:26;55582.06;;;-145.82;100.00
13041;BME280;6587;42.728;23.288;2022-11-20T11:58:57;55582.06;;;-145.82;100.00
13041;BME280;6587;42.728;23.288;2022-11-20T12:01:30;55582.06;;;-145.82;100.00
13041;BME280;6587;42.728;23.288;2022-11-20T12:04:03;55582.06;;;-145.82;100.00
13041;BME280;6587;42.728;23.288;2022-11-20T12:06:32;55582.06;;;-145.82;100.00
13041;BME280;6587;42.728;23.288;2022-11-20T12:09:05;55582.06;;;-145.82;100.00
13041;BME280;6587;42.728;23.288;2022-11-20T12:11:40;55582.06;;;-145.82;100.00
13041;BME280;6587;42.728;23.288;2022-11-20T12:14:15;55582.06;;;-145.82;100.00
13041;BME280;6587;42.728;23.288;2022-11-20T12:16:45;55582.06;;;-145.82;100.00
13041;BME280;6587;42.728;23.288;2022-11-20T12:19:14;55582.06;;;-145.82;100.00
13041;BME280;6587;42.728;23.288;2022-11-20T12:21:49;55582.06;;;-145.82;100.00
13041;BME280;6587;42.728;23.288;2022-11-20T12:24:39;55582.06;;;-145.82;100.00
13041;BME280;6587;42.728;23.288;2022-11-20T12:30:18;55582.06;;;-145.82;100.00
13041;BME280;6587;42.728;23.288;2022-11-20T12:32:58;55582.06;;;-145.82;100.00
13041;BME280;6587;42.728;23.288;2022-11-20T12:35:43;55582.06;;;-145.82;100.00
13041;BME280;6587;42.728;23.288;2022-11-20T12:41:27;55582.06;;;-145.82;100.00
13041;BME280;6587;42.728;23.288;2022-11-20T12:44:28;55582.06;;;-145.82;100.00
13041;BME280;6587;42.728;23.288;2022-11-20T12:47:24;55582.06;;;-145.82;100.00
13041;BME280;6587;42.728;23.288;2022-11-20T12:49:58;55582.06;;;-145.82;100.00
13041;BME280;6587;42.728;23.288;2022-11-20T12:52:38;55582.06;;;-145.82;100.00
13041;BME280;6587;42.728;23.288;2022-11-20T12:55:16;55582.06;;;-145.82;100.00
13041;BME280;6587;42.728;23.288;2022-11-20T12:57:54;55582.06;;;-145.82;100.00
13041;BME280;6587;42.728;23.288;2022-11-20T13:00:24;55582.06;;;-145.82;100.00
13041;BME280;6587;42.728;23.288;2022-11-20T13:03:16;55582.06;;;-145.82;100.00
13041;BME280;6587;42.728;23.288;2022-11-20T13:05:55;55582.06;;;-145.82;100.00
13041;BME280;6587;42.728;23.288;2022-11-20T13:08:25;55582.06;;;-145.82;100.00
13041;BME280;6587;42.728;23.288;2022-11-20T13:10:58;55582.06;;;-145.82;100.00
13041;BME280;6587;42.728;23.288;2022-11-20T13:13:35;55582.06;;;-145.82;100.00